createdAt,value
2019-05-03T00:01:24.677Z,48.31
2019-05-03T00:03:54.800Z,48.31
2019-05-03T00:06:24.636Z,48.33
2019-05-03T00:08:56.174Z,48.63
2019-05-03T00:11:25.969Z,48.56
2019-05-03T00:13:56.297Z,48.56
2019-05-03T00:16:32.518Z,48.56
2019-05-03T00:19:03.451Z,48.78
2019-05-03T00:21:34.335Z,48.97
2019-05-03T00:24:04.280Z,49.00
2019-05-03T00:26:34.297Z,49.48
2019-05-03T00:29:04.606Z,49.77
2019-05-03T00:31:34.587Z,50.10
2019-05-03T00:34:09.285Z,50.10
2019-05-03T00:36:44.304Z,50.23
2019-05-03T00:39:24.118Z,50.42
2019-05-03T00:41:54.328Z,50.69
2019-05-03T00:44:26.363Z,50.62
2019-05-03T00:46:56.274Z,50.60
2019-05-03T00:49:26.472Z,50.60
2019-05-03T00:51:56.544Z,50.91
2019-05-03T00:54:26.422Z,51.35
2019-05-03T00:56:56.816Z,51.60
2019-05-03T00:59:27.521Z,51.52
2019-05-03T01:01:57.537Z,51.99
2019-05-03T01:04:27.621Z,52.36
2019-05-03T01:07:03.032Z,52.97
2019-05-03T01:09:33.221Z,52.59
2019-05-03T01:12:03.287Z,52.59
2019-05-03T01:14:34.327Z,53.02
2019-05-03T01:17:04.364Z,52.63
2019-05-03T01:19:35.025Z,52.63
2019-05-03T01:22:05.209Z,53.34
2019-05-03T01:24:37.102Z,53.34
2019-05-03T01:27:07.195Z,53.33
2019-05-03T01:29:37.175Z,53.93
2019-05-03T01:32:07.213Z,54.12
2019-05-03T01:34:36.807Z,54.12
2019-05-03T01:37:07.640Z,54.58
2019-05-03T01:39:38.998Z,54.58
2019-05-03T01:42:08.898Z,54.57
2019-05-03T01:44:38.814Z,54.19
2019-05-03T01:47:13.415Z,54.19
2019-05-03T01:49:53.876Z,55.25
2019-05-03T01:52:32.454Z,55.75
2019-05-03T01:55:03.457Z,55.35
2019-05-03T01:57:33.655Z,55.35
2019-05-03T02:00:03.889Z,55.95
2019-05-03T02:02:52.422Z,56.34
2019-05-03T02:05:42.782Z,56.22
2019-05-03T02:08:14.465Z,55.92
2019-05-03T02:10:45.132Z,56.10
2019-05-03T02:13:15.861Z,55.98
2019-05-03T02:15:46.307Z,55.98
2019-05-03T02:18:16.701Z,56.15
2019-05-03T02:20:46.912Z,56.27
2019-05-03T02:23:16.974Z,56.59
2019-05-03T02:25:56.204Z,56.67
2019-05-03T02:28:22.020Z,56.42
2019-05-03T02:30:53.550Z,56.24
2019-05-03T02:33:24.514Z,56.17
2019-05-03T02:35:54.284Z,56.25
2019-05-03T02:38:25.063Z,56.25
2019-05-03T02:40:55.343Z,56.63
2019-05-03T02:43:36.676Z,57.37
2019-05-03T02:46:29.318Z,57.37
2019-05-03T02:49:18.725Z,57.55
2019-05-03T02:51:49.426Z,57.56
2019-05-03T02:54:20.161Z,57.68
2019-05-03T02:56:50.071Z,57.80
2019-05-03T02:59:26.135Z,58.15
2019-05-03T03:01:55.928Z,58.28
2019-05-03T03:04:28.067Z,58.17
2019-05-03T03:07:00.335Z,58.17
2019-05-03T03:09:30.859Z,58.01
2019-05-03T03:12:02.647Z,58.21
2019-05-03T03:14:36.271Z,58.36
2019-05-03T03:17:08.010Z,57.88
2019-05-03T03:19:42.318Z,57.88
2019-05-03T03:22:16.972Z,57.95
2019-05-03T03:24:51.461Z,58.15
2019-05-03T03:27:25.908Z,58.49
2019-05-03T03:30:28.803Z,58.91
2019-05-03T03:32:58.199Z,58.91
2019-05-03T03:35:30.738Z,58.74
2019-05-03T03:38:02.402Z,58.34
2019-05-03T03:40:35.640Z,58.34
2019-05-03T03:43:05.629Z,58.25
2019-05-03T03:45:37.382Z,58.23
2019-05-03T03:48:08.741Z,58.17
2019-05-03T03:50:42.147Z,58.24
2019-05-03T03:53:15.555Z,58.57
2019-05-03T03:55:48.606Z,58.82
2019-05-03T03:58:22.806Z,59.02
2019-05-03T04:00:51.039Z,59.21
2019-05-03T04:03:22.544Z,59.19
2019-05-03T04:05:55.399Z,59.19
2019-05-03T04:08:25.476Z,59.07
2019-05-03T04:10:57.801Z,58.62
2019-05-03T04:13:28.376Z,58.38
2019-05-03T04:16:20.989Z,58.47
2019-05-03T04:18:55.843Z,58.26
2019-05-03T04:21:27.739Z,58.35
2019-05-03T04:23:58.358Z,58.03
2019-05-03T04:26:29.919Z,57.72
2019-05-03T04:29:05.444Z,57.72
2019-05-03T04:31:36.760Z,57.24
2019-05-03T04:34:06.923Z,57.04
2019-05-03T04:36:36.875Z,57.04
2019-05-03T04:39:08.366Z,56.80
2019-05-03T04:41:37.965Z,56.74
2019-05-03T04:44:10.562Z,56.59
2019-05-03T04:46:40.206Z,56.59
2019-05-03T04:49:10.650Z,56.28
2019-05-03T04:51:40.668Z,55.87
2019-05-03T04:54:28.201Z,55.09
2019-05-03T04:56:58.439Z,53.74
2019-05-03T04:59:28.860Z,53.01
2019-05-03T05:01:58.659Z,53.01
2019-05-03T05:04:28.667Z,52.44
2019-05-03T05:06:58.536Z,52.44
2019-05-03T05:09:28.251Z,52.37
2019-05-03T05:11:59.086Z,51.19
2019-05-03T05:14:28.818Z,51.20
2019-05-03T05:16:58.516Z,50.81
2019-05-03T05:19:40.948Z,50.81
2019-05-03T05:22:15.374Z,49.81
2019-05-03T05:24:45.002Z,49.90
2019-05-03T05:27:51.402Z,49.92
2019-05-03T05:30:15.216Z,49.61
2019-05-03T05:32:45.439Z,47.51
2019-05-03T05:35:15.761Z,47.43
2019-05-03T05:37:46.379Z,47.43
2019-05-03T05:40:19.682Z,46.87
2019-05-03T05:42:49.447Z,46.98
2019-05-03T05:45:19.128Z,46.47
2019-05-03T05:47:55.458Z,46.47
2019-05-03T05:50:31.455Z,46.48
2019-05-03T05:53:01.800Z,46.07
2019-05-03T05:55:54.967Z,45.33
2019-05-03T05:58:37.421Z,45.33
2019-05-03T06:01:25.947Z,45.15
2019-05-03T06:03:55.896Z,45.23
2019-05-03T06:06:46.628Z,45.23
2019-05-03T06:09:38.053Z,45.10
2019-05-03T06:12:26.584Z,44.42
2019-05-03T06:15:01.386Z,42.79
2019-05-03T06:17:55.476Z,42.79
2019-05-03T06:20:56.582Z,42.51
2019-05-03T06:23:34.735Z,42.99
2019-05-03T06:26:25.316Z,42.02
2019-05-03T06:28:56.442Z,41.48
2019-05-03T06:31:49.574Z,41.48
2019-05-03T06:34:21.907Z,41.54
2019-05-03T06:36:55.299Z,40.68
2019-05-03T06:39:26.030Z,40.68
2019-05-03T06:41:56.615Z,41.34
2019-05-03T06:44:28.598Z,41.67
2019-05-03T06:47:01.098Z,40.63
2019-05-03T06:49:34.461Z,40.47
2019-05-03T06:52:05.929Z,40.47
2019-05-03T06:54:37.907Z,40.61
2019-05-03T06:57:09.818Z,40.33
2019-05-03T06:59:48.404Z,40.35
2019-05-03T07:02:47.442Z,40.11
2019-05-03T07:05:39.146Z,40.37
2019-05-03T07:08:26.812Z,40.69
2019-05-03T07:10:59.036Z,40.42
2019-05-03T07:13:28.854Z,40.59
2019-05-03T07:15:58.743Z,40.25
2019-05-03T07:18:34.985Z,39.20
2019-05-03T07:21:04.892Z,39.36
2019-05-03T07:23:36.187Z,38.81
2019-05-03T07:26:08.108Z,38.81
2019-05-03T07:28:46.933Z,38.38
2019-05-03T07:31:12.141Z,37.95
2019-05-03T07:33:42.315Z,38.07
2019-05-03T07:36:15.453Z,37.92
2019-05-03T07:38:47.745Z,37.65
2019-05-03T07:41:17.626Z,37.46
2019-05-03T07:43:47.944Z,36.67
2019-05-03T07:46:18.550Z,37.80
2019-05-03T07:48:48.299Z,37.60
2019-05-03T07:51:18.649Z,36.98
2019-05-03T07:53:49.823Z,37.45
2019-05-03T07:56:20.031Z,37.42
2019-05-03T07:58:59.785Z,36.84
2019-05-03T08:01:37.238Z,36.38
2019-05-03T08:04:07.280Z,36.30
2019-05-03T08:06:37.429Z,35.93
2019-05-03T08:09:09.246Z,35.32
2019-05-03T08:11:39.777Z,34.44
2019-05-03T08:14:09.592Z,33.52
2019-05-03T08:16:40.339Z,31.76
2019-05-03T08:19:09.871Z,31.16
2019-05-03T08:21:41.584Z,32.32
2019-05-03T08:24:14.933Z,33.43
2019-05-03T08:26:45.399Z,34.27
2019-05-03T08:29:25.979Z,34.19
2019-05-03T08:32:04.909Z,33.79
2019-05-03T08:34:49.348Z,33.40
2019-05-03T08:37:37.504Z,33.46
2019-05-03T08:40:07.331Z,33.19
2019-05-03T08:42:38.877Z,33.53
2019-05-03T08:45:10.148Z,33.60
2019-05-03T08:47:39.788Z,34.65
2019-05-03T08:50:09.568Z,34.51
2019-05-03T08:52:39.222Z,35.10
2019-05-03T08:55:11.953Z,35.10
2019-05-03T08:57:44.825Z,35.69
2019-05-03T09:00:18.268Z,35.32
2019-05-03T09:02:54.937Z,34.63
2019-05-03T09:05:28.934Z,34.64
2019-05-03T09:07:59.995Z,34.86
2019-05-03T09:10:37.091Z,34.87
2019-05-03T09:13:14.791Z,34.99
2019-05-03T09:15:45.192Z,34.28
2019-05-03T09:18:21.005Z,34.66
2019-05-03T09:20:50.625Z,34.57
2019-05-03T09:23:23.961Z,34.73
2019-05-03T09:25:54.867Z,34.89
2019-05-03T09:28:28.900Z,35.35
2019-05-03T09:30:57.388Z,35.58
2019-05-03T09:33:28.108Z,35.57
2019-05-03T09:35:57.803Z,36.48
2019-05-03T09:38:27.356Z,39.26
2019-05-03T09:40:57.547Z,39.79
2019-05-03T09:43:27.551Z,41.50
2019-05-03T09:45:57.732Z,42.07
2019-05-03T09:48:28.882Z,42.40
2019-05-03T09:50:59.733Z,41.84
2019-05-03T09:53:32.446Z,43.04
2019-05-03T09:56:02.253Z,43.04
2019-05-03T09:58:38.140Z,42.62
2019-05-03T10:01:11.682Z,42.94
2019-05-03T10:03:41.683Z,43.04
2019-05-03T10:06:14.329Z,42.66
2019-05-03T10:08:45.367Z,42.52
2019-05-03T10:11:15.706Z,42.73
2019-05-03T10:13:49.052Z,41.77
2019-05-03T10:16:22.148Z,41.77
2019-05-03T10:18:51.945Z,40.98
2019-05-03T10:21:25.779Z,41.39
2019-05-03T10:23:55.202Z,40.98
2019-05-03T10:26:27.163Z,39.70
2019-05-03T10:29:00.444Z,39.21
2019-05-03T10:31:41.413Z,39.04
2019-05-03T10:34:15.546Z,38.95
2019-05-03T10:36:47.451Z,39.05
2019-05-03T10:39:20.615Z,38.87
2019-05-03T10:41:50.806Z,38.87
2019-05-03T10:44:24.412Z,39.34
2019-05-03T10:46:55.778Z,39.42
2019-05-03T10:49:26.330Z,40.61
2019-05-03T10:52:05.611Z,40.61
2019-05-03T10:54:36.050Z,41.71
2019-05-03T10:57:13.288Z,41.84
2019-05-03T10:59:44.859Z,41.80
2019-05-03T11:02:30.632Z,41.81
2019-05-03T11:05:00.418Z,41.58
2019-05-03T11:07:30.837Z,41.11
2019-05-03T11:10:00.626Z,40.95
2019-05-03T11:12:30.580Z,40.75
2019-05-03T11:15:00.798Z,40.48
2019-05-03T11:17:30.345Z,40.77
2019-05-03T11:20:01.164Z,40.91
2019-05-03T11:22:30.814Z,42.03
2019-05-03T11:25:01.253Z,42.70
2019-05-03T11:27:45.852Z,42.79
2019-05-03T11:30:18.036Z,42.31
2019-05-03T11:33:07.581Z,41.40
2019-05-03T11:35:57.507Z,42.38
2019-05-03T11:38:31.217Z,42.07
2019-05-03T11:41:00.992Z,41.52
2019-05-03T11:43:31.982Z,40.08
2019-05-03T11:46:02.064Z,40.93
2019-05-03T11:48:31.584Z,40.60
2019-05-03T11:51:02.499Z,41.20
2019-05-03T11:53:42.082Z,40.65
2019-05-03T11:56:12.273Z,40.38
2019-05-03T11:58:45.669Z,40.34
2019-05-03T12:01:35.887Z,40.45
2019-05-03T12:04:06.774Z,40.68
2019-05-03T12:06:36.957Z,40.54
2019-05-03T12:09:07.514Z,41.42
2019-05-03T12:11:39.598Z,41.66
2019-05-03T12:14:15.154Z,42.38
2019-05-03T12:17:19.036Z,42.48
2019-05-03T12:19:31.598Z,41.95
2019-05-03T12:22:00.984Z,41.93
2019-05-03T12:24:32.755Z,41.56
2019-05-03T12:27:04.748Z,41.85
2019-05-03T12:29:35.270Z,41.37
2019-05-03T12:32:08.126Z,41.36
2019-05-03T12:34:40.233Z,40.93
2019-05-03T12:37:10.190Z,40.45
2019-05-03T12:39:40.268Z,40.37
2019-05-03T12:42:11.216Z,39.98
2019-05-03T12:44:40.772Z,39.83
2019-05-03T12:47:10.824Z,39.24
2019-05-03T12:49:40.922Z,37.99
2019-05-03T12:52:11.652Z,38.39
2019-05-03T12:54:47.728Z,37.28
2019-05-03T12:57:19.193Z,37.54
2019-05-03T12:59:58.352Z,38.36
2019-05-03T13:02:33.635Z,38.30
2019-05-03T13:05:04.857Z,38.85
2019-05-03T13:07:48.913Z,38.64
2019-05-03T13:10:22.277Z,37.89
2019-05-03T13:12:53.278Z,38.64
2019-05-03T13:15:28.084Z,38.68
2019-05-03T13:17:58.110Z,38.70
2019-05-03T13:20:28.247Z,38.83
2019-05-03T13:22:59.508Z,39.22
2019-05-03T13:25:29.309Z,38.76
2019-05-03T13:27:58.900Z,38.76
2019-05-03T13:30:29.743Z,38.23
2019-05-03T13:33:00.693Z,38.21
2019-05-03T13:35:31.131Z,38.76
2019-05-03T13:38:00.700Z,38.61
2019-05-03T13:40:31.286Z,38.41
2019-05-03T13:43:03.932Z,39.11
2019-05-03T13:45:32.943Z,38.97
2019-05-03T13:48:04.964Z,39.04
2019-05-03T13:50:35.495Z,38.90
2019-05-03T13:53:06.166Z,39.09
2019-05-03T13:55:38.971Z,38.91
2019-05-03T13:58:09.044Z,38.89
2019-05-03T14:00:40.599Z,39.46
2019-05-03T14:03:11.043Z,40.52
2019-05-03T14:05:40.542Z,40.55
2019-05-03T14:08:11.250Z,40.63
2019-05-03T14:10:41.559Z,40.41
2019-05-03T14:13:13.331Z,40.76
2019-05-03T14:15:45.202Z,41.25
2019-05-03T14:18:15.624Z,41.69
2019-05-03T14:21:10.747Z,41.40
2019-05-03T14:23:58.319Z,41.11
2019-05-03T14:26:28.735Z,41.55
2019-05-03T14:29:00.266Z,40.95
2019-05-03T14:31:30.737Z,41.14
2019-05-03T14:34:00.407Z,41.58
2019-05-03T14:36:30.626Z,41.50
2019-05-03T14:39:02.308Z,42.30
2019-05-03T14:41:32.694Z,42.67
2019-05-03T14:44:04.959Z,42.77
2019-05-03T14:46:36.278Z,43.10
2019-05-03T14:49:07.777Z,43.82
2019-05-03T14:51:37.602Z,44.38
2019-05-03T14:54:08.908Z,43.96
2019-05-03T14:56:47.153Z,43.96
2019-05-03T14:59:34.982Z,42.69
2019-05-03T15:02:15.423Z,42.90
2019-05-03T15:04:47.232Z,42.68
2019-05-03T15:07:17.053Z,44.32
2019-05-03T15:09:47.366Z,43.60
2019-05-03T15:12:17.835Z,44.00
2019-05-03T15:14:49.319Z,43.66
2019-05-03T15:17:20.151Z,43.24
2019-05-03T15:19:51.533Z,43.45
2019-05-03T15:22:25.197Z,43.72
2019-05-03T15:24:54.974Z,43.54
2019-05-03T15:27:26.617Z,44.10
2019-05-03T15:29:56.183Z,44.25
2019-05-03T15:32:25.937Z,44.29
2019-05-03T15:34:56.017Z,43.74
2019-05-03T15:37:32.353Z,43.47
2019-05-03T15:40:02.513Z,43.12
2019-05-03T15:42:35.164Z,42.79
2019-05-03T15:45:25.201Z,43.50
2019-05-03T15:48:27.807Z,44.67
2019-05-03T15:50:57.886Z,45.21
2019-05-03T15:53:27.752Z,44.82
2019-05-03T15:55:57.772Z,45.08
2019-05-03T15:58:30.249Z,45.19
2019-05-03T16:01:04.716Z,45.37
2019-05-03T16:03:36.641Z,45.37
2019-05-03T16:06:06.991Z,46.54
2019-05-03T16:08:37.467Z,47.13
2019-05-03T16:11:10.211Z,47.64
2019-05-03T16:13:40.256Z,48.90
2019-05-03T16:16:15.003Z,49.91
2019-05-03T16:18:45.037Z,49.91
2019-05-03T16:21:20.312Z,51.36
2019-05-03T16:23:50.472Z,51.27
2019-05-03T16:26:20.346Z,51.68
2019-05-03T16:29:04.580Z,51.39
2019-05-03T16:31:34.629Z,50.79
2019-05-03T16:34:04.484Z,50.35
2019-05-03T16:36:34.713Z,51.21
2019-05-03T16:39:07.402Z,51.58
2019-05-03T16:41:36.979Z,51.00
2019-05-03T16:44:06.974Z,50.20
2019-05-03T16:46:38.162Z,50.20
2019-05-03T16:49:08.432Z,50.78
2019-05-03T16:51:38.437Z,51.81
2019-05-03T16:54:09.424Z,51.61
2019-05-03T16:56:39.603Z,51.27
2019-05-03T16:59:14.779Z,50.95
2019-05-03T17:01:45.543Z,51.33
2019-05-03T17:04:34.563Z,51.75
2019-05-03T17:07:13.048Z,52.22
2019-05-03T17:09:52.486Z,52.23
2019-05-03T17:12:25.914Z,51.73
2019-05-03T17:14:57.081Z,53.22
2019-05-03T17:17:27.754Z,53.22
2019-05-03T17:19:58.083Z,54.67
2019-05-03T17:22:28.034Z,55.88
2019-05-03T17:24:57.914Z,56.81
2019-05-03T17:27:29.965Z,59.82
2019-05-03T17:30:01.828Z,61.04
2019-05-03T17:32:32.211Z,61.29
2019-05-03T17:35:02.198Z,61.11
2019-05-03T17:37:34.523Z,60.74
2019-05-03T17:40:34.868Z,62.24
2019-05-03T17:43:18.685Z,62.96
2019-05-03T17:45:51.904Z,62.96
2019-05-03T17:48:22.179Z,63.51
2019-05-03T17:50:55.104Z,65.29
2019-05-03T17:53:46.504Z,65.29
2019-05-03T17:56:38.428Z,64.60
2019-05-03T17:59:24.459Z,64.58
2019-05-03T18:02:23.499Z,64.58
2019-05-03T18:05:15.390Z,63.96
2019-05-03T18:08:04.289Z,63.96
2019-05-03T18:10:37.752Z,64.10
2019-05-03T18:13:08.566Z,64.56
2019-05-03T18:15:39.795Z,65.02
2019-05-03T18:18:10.257Z,64.92
2019-05-03T18:20:40.179Z,64.19
2019-05-03T18:23:11.548Z,64.19
2019-05-03T18:25:41.418Z,64.46
2019-05-03T18:28:14.818Z,65.66
2019-05-03T18:30:46.189Z,67.94
2019-05-03T18:33:17.129Z,67.94
2019-05-03T18:35:47.228Z,67.71
2019-05-03T18:38:17.167Z,67.94
2019-05-03T18:40:48.490Z,67.94
2019-05-03T18:43:31.575Z,67.32
2019-05-03T18:46:23.440Z,67.25
2019-05-03T18:49:06.687Z,67.08
2019-05-03T18:51:37.915Z,67.62
2019-05-03T18:54:15.501Z,68.09
2019-05-03T18:56:44.426Z,67.70
2019-05-03T18:59:14.914Z,67.74
2019-05-03T19:01:46.698Z,68.16
2019-05-03T19:04:31.400Z,70.78
2019-05-03T19:07:03.810Z,70.78
2019-05-03T19:09:50.811Z,70.65
2019-05-03T19:12:31.457Z,69.44
2019-05-03T19:15:01.695Z,69.92
2019-05-03T19:17:44.192Z,70.54
2019-05-03T19:20:19.551Z,71.36
2019-05-03T19:22:54.431Z,71.48
2019-05-03T19:25:44.001Z,71.94
2019-05-03T19:28:06.029Z,72.44
2019-05-03T19:30:39.461Z,72.82
2019-05-03T19:33:10.081Z,73.31
2019-05-03T19:35:40.094Z,73.82
2019-05-03T19:38:11.707Z,73.82
2019-05-03T19:40:42.159Z,74.02
2019-05-03T19:43:15.157Z,74.01
2019-05-03T19:45:45.674Z,73.12
2019-05-03T19:48:16.962Z,72.68
2019-05-03T19:50:48.056Z,72.50
2019-05-03T19:53:50.348Z,72.83
2019-05-03T19:56:22.635Z,73.27
2019-05-03T19:58:56.652Z,73.60
2019-05-03T20:01:45.519Z,73.59
2019-05-03T20:04:34.485Z,72.74
2019-05-03T20:07:26.837Z,72.03
2019-05-03T20:09:56.721Z,72.67
2019-05-03T20:12:32.407Z,72.41
2019-05-03T20:15:05.193Z,74.04
2019-05-03T20:17:36.103Z,74.04
2019-05-03T20:20:07.231Z,73.81
2019-05-03T20:22:37.521Z,74.33
2019-05-03T20:25:07.750Z,74.76
2019-05-03T20:27:38.345Z,75.29
2019-05-03T20:30:09.962Z,74.76
2019-05-03T20:32:40.916Z,74.81
2019-05-03T20:35:18.765Z,75.31
2019-05-03T20:37:45.703Z,75.08
2019-05-03T20:40:17.732Z,76.12
2019-05-03T20:43:13.256Z,76.24
2019-05-03T20:46:15.471Z,76.51
2019-05-03T20:48:48.279Z,76.57
2019-05-03T20:51:18.232Z,76.71
2019-05-03T20:53:48.263Z,76.06
2019-05-03T20:56:18.338Z,76.76
2019-05-03T20:58:48.284Z,76.95
2019-05-03T21:01:23.205Z,76.54
2019-05-03T21:03:54.341Z,76.73
2019-05-03T21:06:34.899Z,76.90
2019-05-03T21:08:57.169Z,76.96
2019-05-03T21:11:31.908Z,77.07
2019-05-03T21:14:01.639Z,76.91
2019-05-03T21:16:38.169Z,76.47
2019-05-03T21:19:35.187Z,75.82
2019-05-03T21:22:12.065Z,75.50
2019-05-03T21:25:03.754Z,75.27
2019-05-03T21:27:35.295Z,75.25
2019-05-03T21:30:06.471Z,75.24
2019-05-03T21:32:38.229Z,75.97
2019-05-03T21:35:08.696Z,76.60
2019-05-03T21:37:38.377Z,76.64
2019-05-03T21:40:10.686Z,76.62
2019-05-03T21:42:42.889Z,76.45
2019-05-03T21:45:15.107Z,76.35
2019-05-03T21:47:55.763Z,77.14
2019-05-03T21:50:35.542Z,77.54
2019-05-03T21:53:05.837Z,77.47
2019-05-03T21:55:36.921Z,77.51
2019-05-03T21:58:08.215Z,76.68
2019-05-03T22:01:07.170Z,76.67
2019-05-03T22:03:37.031Z,77.07
2019-05-03T22:06:11.714Z,78.14
2019-05-03T22:08:42.614Z,77.65
2019-05-03T22:11:15.024Z,77.45
2019-05-03T22:13:46.074Z,77.34
2019-05-03T22:16:32.343Z,77.33
2019-05-03T22:19:05.633Z,77.24
2019-05-03T22:21:40.848Z,77.85
2019-05-03T22:24:35.462Z,77.14
2019-05-03T22:27:15.362Z,77.42
2019-05-03T22:29:46.730Z,77.90
2019-05-03T22:32:17.625Z,78.02
2019-05-03T22:34:47.338Z,77.77
2019-05-03T22:37:17.808Z,78.04
2019-05-03T22:39:47.826Z,78.54
2019-05-03T22:42:25.298Z,78.85
2019-05-03T22:44:57.445Z,78.58
2019-05-03T22:47:27.501Z,79.10
2019-05-03T22:49:57.850Z,78.89
2019-05-03T22:52:27.851Z,79.03
2019-05-03T22:54:59.428Z,79.15
2019-05-03T22:57:29.777Z,79.29
2019-05-03T23:00:00.399Z,79.45
2019-05-03T23:02:30.249Z,79.68
2019-05-03T23:05:02.046Z,79.70
2019-05-03T23:07:34.906Z,79.70
2019-05-03T23:10:04.604Z,79.45
2019-05-03T23:12:34.930Z,79.23
2019-05-03T23:15:06.164Z,78.99
2019-05-03T23:17:35.946Z,79.17
2019-05-03T23:20:11.993Z,79.37
2019-05-03T23:22:45.550Z,79.12
2019-05-03T23:25:15.428Z,78.48
2019-05-03T23:27:45.473Z,77.88
2019-05-03T23:30:15.491Z,77.84
2019-05-03T23:32:46.565Z,78.38
2019-05-03T23:35:18.938Z,77.90
2019-05-03T23:37:50.223Z,77.80
2019-05-03T23:40:22.291Z,77.89
2019-05-03T23:42:54.472Z,77.63
2019-05-03T23:45:25.539Z,78.31
2019-05-03T23:47:56.785Z,78.19
2019-05-03T23:50:27.217Z,78.27
2019-05-03T23:52:59.858Z,78.31
2019-05-03T23:55:35.679Z,78.00
2019-05-03T23:58:07.683Z,78.31
